Time;durP1;ratioP1;P1;durP2;ratioP2;P2;SDS_P1;SDS_P2;PMS_P1;PMS_P2;Temp;Humidity;BMP_temperature;BMP_pressure;BME280_temperature;BME280_humidity;BME280_pressure;Samples;Min_cycle;Max_cycle;Signal;HPM_P1;HPM_P2
2022/12/31 00:00:01;;;;;;;83.85;35.05;;;;;;;3.94;76.23;100853.13;3157128;28;20060;-68
2022/12/31 00:01:33;;;;;;;79.95;35.53;;;;;;;3.46;76.17;100777.59;3162266;28;20436;-71
2022/12/31 00:03:05;;;;;;;76.20;35.40;;;;;;;3.96;76.26;100848.81;3168298;28;20051;-68
2022/12/31 00:04:37;;;;;;;84.55;36.75;;;;;;;3.97;76.24;100858.28;3158559;28;20075;-69
2022/12/31 00:06:14;;;;;;;78.88;36.30;;;;;;;3.91;76.17;100843.69;3155094;28;20048;-68
2022/12/31 00:07:48;;;;;;;79.70;34.72;;;;;;;3.99;76.10;100851.38;3148287;28;20067;-69
2022/12/31 00:09:19;;;;;;;76.28;34.97;;;;;;;4.00;76.06;100855.69;3156826;28;20381;-69
2022/12/31 00:10:51;;;;;;;84.10;35.85;;;;;;;3.94;75.94;100845.41;3156794;28;20105;-69
2022/12/31 00:12:24;;;;;;;82.57;37.10;;;;;;;3.94;76.05;100847.97;3156374;28;20047;-69
2022/12/31 00:13:55;;;;;;;72.45;35.00;;;;;;;3.69;75.89;100813.63;3156889;28;20044;-69
2022/12/31 00:15:27;;;;;;;77.82;34.63;;;;;;;4.04;75.85;100872.88;3156734;28;20108;-69
2022/12/31 00:16:59;;;;;;;79.38;35.20;;;;;;;4.00;75.81;100858.28;3156701;28;20089;-68
2022/12/31 00:18:30;;;;;;;81.60;34.75;;;;;;;4.05;75.76;100860.00;3156865;28;20219;-68
2022/12/31 00:20:02;;;;;;;71.05;32.03;;;;;;;4.07;75.76;100865.13;3160413;28;20069;-69
2022/12/31 00:21:34;;;;;;;71.80;32.70;;;;;;;4.06;75.69;100864.28;3166239;28;20064;-69
2022/12/31 00:23:07;;;;;;;75.30;34.85;;;;;;;4.04;75.77;100863.41;3158637;28;20044;-69
2022/12/31 00:24:39;;;;;;;74.90;33.50;;;;;;;4.06;75.76;100878.88;3168367;28;20051;-69
2022/12/31 00:26:14;;;;;;;76.97;34.45;;;;;;;4.07;75.80;100875.44;3156844;28;20052;-68
2022/12/31 00:27:46;;;;;;;71.85;32.38;;;;;;;3.94;75.72;100845.41;3157151;28;20112;-70
2022/12/31 00:29:17;;;;;;;71.00;34.47;;;;;;;4.07;75.67;100868.56;3169965;28;20429;-68
2022/12/31 00:30:49;;;;;;;81.72;35.38;;;;;;;4.06;75.74;100860.84;3157356;28;20059;-68
2022/12/31 00:32:21;;;;;;;78.20;33.65;;;;;;;4.02;75.65;100859.13;3167909;28;20050;-71
2022/12/31 00:33:53;;;;;;;74.63;33.75;;;;;;;4.06;75.56;100866.00;3167160;28;20051;-68
2022/12/31 00:35:25;;;;;;;75.68;33.88;;;;;;;4.05;75.68;100878.03;3159202;28;20036;-69
2022/12/31 00:36:57;;;;;;;73.20;33.30;;;;;;;4.04;75.54;100885.75;3156423;28;20056;-67
2022/12/31 00:38:31;;;;;;;70.78;33.15;;;;;;;4.04;75.80;100884.03;3156567;28;20048;-69
2022/12/31 00:40:02;;;;;;;69.88;30.60;;;;;;;4.02;75.64;100883.19;3164843;28;20055;-70
2022/12/31 00:41:35;;;;;;;71.03;31.60;;;;;;;4.05;75.64;100897.78;3161649;28;20594;-70
2022/12/31 00:43:06;;;;;;;75.47;32.47;;;;;;;4.06;75.70;100891.78;3163516;28;20534;-70
2022/12/31 00:44:38;;;;;;;75.65;32.15;;;;;;;4.07;75.70;100891.75;3163106;28;20112;-68
2022/12/31 00:46:11;;;;;;;69.15;32.85;;;;;;;4.08;75.64;100890.91;3156466;28;20044;-68
2022/12/31 00:47:43;;;;;;;70.20;32.08;;;;;;;4.09;75.64;100890.06;3161479;28;20043;-68
2022/12/31 00:49:15;;;;;;;71.22;32.17;;;;;;;4.11;75.64;100890.03;3165059;28;20047;-68
2022/12/31 00:50:47;;;;;;;71.13;32.92;;;;;;;4.01;75.61;100876.31;3160118;28;20059;-68
2022/12/31 00:52:19;;;;;;;70.10;32.50;;;;;;;4.05;75.54;100880.63;3159571;28;20039;-68
2022/12/31 00:53:53;;;;;;;71.65;31.63;;;;;;;4.04;75.64;100896.06;3169325;28;20055;-70
2022/12/31 00:55:25;;;;;;;69.38;31.77;;;;;;;3.93;75.81;100882.31;3171090;28;20104;-70
2022/12/31 00:56:57;;;;;;;63.10;30.02;;;;;;;3.99;75.85;100895.19;3167287;28;20101;-70
2022/12/31 00:58:29;;;;;;;72.63;31.77;;;;;;;4.00;75.79;100894.38;3169184;28;20052;-70
2022/12/31 01:00:01;;;;;;;71.05;31.33;;;;;;;3.96;75.77;100882.31;3171722;28;20055;-69
2022/12/31 01:01:35;;;;;;;72.88;32.58;;;;;;;4.02;75.81;100887.47;3158914;28;20048;-70
2022/12/31 01:03:08;;;;;;;76.03;32.58;;;;;;;4.00;75.80;100887.47;3155770;28;20524;-69
2022/12/31 01:04:39;;;;;;;70.80;32.50;;;;;;;3.97;75.87;100902.09;3157791;28;20122;-69
2022/12/31 01:06:12;;;;;;;70.10;33.15;;;;;;;3.94;75.91;100900.38;3168102;28;20051;-69
2022/12/31 01:07:43;;;;;;;70.85;31.17;;;;;;;3.92;76.08;100890.94;3153842;28;20067;-69
2022/12/31 01:09:19;;;;;;;71.03;29.85;;;;;;;3.78;76.24;100878.88;3164511;28;20047;-69
2022/12/31 01:12:41;;;;;;;77.18;32.50;;;;;;;3.79;76.54;100900.38;3171339;28;20378;-69
2022/12/31 01:14:15;;;;;;;70.05;32.25;;;;;;;3.72;76.70;100890.91;3161018;28;20056;-69
2022/12/31 01:15:45;;;;;;;76.38;32.85;;;;;;;3.76;76.77;100897.81;3158449;28;20055;-69
2022/12/31 01:17:17;;;;;;;64.90;30.52;;;;;;;3.75;76.70;100902.06;3158678;28;20048;-69
2022/12/31 01:18:50;;;;;;;68.57;30.23;;;;;;;3.77;76.74;100904.66;3166104;28;20048;-68
2022/12/31 01:20:21;;;;;;;71.38;31.05;;;;;;;3.76;76.68;100908.97;3164054;28;20052;-69
2022/12/31 01:21:53;;;;;;;61.58;27.92;;;;;;;3.75;76.84;100903.78;3164213;28;20135;-69
2022/12/31 01:23:23;;;;;;;56.67;26.88;;;;;;;3.72;76.79;100901.22;3165767;28;20044;-69
2022/12/31 01:24:57;;;;;;;61.05;27.45;;;;;;;3.71;76.92;100900.38;3158027;28;20048;-69
2022/12/31 01:26:28;;;;;;;61.85;27.98;;;;;;;3.69;76.83;100893.50;3158663;28;20394;-69
2022/12/31 01:28:00;;;;;;;60.33;27.08;;;;;;;3.70;76.91;100890.94;3161361;28;20528;-69
2022/12/31 01:29:32;;;;;;;60.08;26.77;;;;;;;3.72;76.82;100881.47;3164602;28;20113;-69
2022/12/31 01:31:04;;;;;;;59.42;26.15;;;;;;;3.68;76.65;100879.75;3168978;28;20075;-69
2022/12/31 01:32:36;;;;;;;55.05;25.33;;;;;;;3.76;76.63;100880.63;3158612;28;20036;-69
2022/12/31 01:34:08;;;;;;;64.43;25.20;;;;;;;3.79;76.40;100888.34;3158513;28;20063;-69
2022/12/31 01:35:40;;;;;;;52.83;24.60;;;;;;;3.81;76.38;100888.34;3167181;28;20044;-69
2022/12/31 01:37:12;;;;;;;52.95;25.75;;;;;;;3.60;76.29;100859.13;3158365;28;20048;-69
2022/12/31 01:38:44;;;;;;;54.38;24.35;;;;;;;3.78;76.28;100885.75;3170140;28;20131;-69
2022/12/31 01:40:17;;;;;;;53.97;25.52;;;;;;;3.76;76.29;100880.63;3159675;28;20597;-69
2022/12/31 01:41:49;;;;;;;;;;;;;;;3.68;76.27;100878.91;3158507;28;20440;-69
2022/12/31 01:43:20;;;;;;;51.33;24.23;;;;;;;3.59;76.33;100867.72;3167926;28;19931;-68
2022/12/31 01:44:55;;;;;;;52.38;24.50;;;;;;;3.65;76.46;100877.19;3162193;28;20057;-69
2022/12/31 01:46:33;;;;;;;55.17;24.80;;;;;;;3.66;76.39;100886.63;3166016;28;20047;-68
2022/12/31 01:48:05;;;;;;;53.83;25.77;;;;;;;3.68;76.44;100876.34;3163009;28;20052;-69
2022/12/31 01:49:42;;;;;;;52.83;24.10;;;;;;;3.67;76.32;100874.59;3158193;28;20121;-68
2022/12/31 01:51:14;;;;;;;54.88;25.52;;;;;;;3.63;76.35;100884.03;3162276;28;20052;-69
2022/12/31 01:52:50;;;;;;;54.38;25.92;;;;;;;3.59;76.46;100890.91;3157983;28;20044;-68
2022/12/31 01:54:24;;;;;;;56.28;24.70;;;;;;;3.54;76.38;100879.75;3158325;28;20249;-68
2022/12/31 01:55:59;;;;;;;57.70;25.77;;;;;;;3.54;76.35;100879.75;3163919;28;20044;-69
2022/12/31 01:57:32;;;;;;;55.80;24.90;;;;;;;3.47;76.42;100872.03;3166245;28;20055;-69
2022/12/31 01:59:08;;;;;;;59.73;26.47;;;;;;;3.57;76.22;100889.19;3163008;28;20131;-70
2022/12/31 02:00:40;;;;;;;53.92;24.30;;;;;;;3.62;76.23;100896.06;3160985;28;20309;-69
2022/12/31 02:02:13;;;;;;;51.88;23.85;;;;;;;3.64;76.20;100898.66;3161690;28;20101;-70
2022/12/31 02:03:45;;;;;;;43.42;21.73;;;;;;;3.63;76.13;100900.34;3170530;28;20043;-67
2022/12/31 02:05:35;;;;;;;50.58;22.85;;;;;;;3.65;76.02;100892.63;3163076;28;20051;-68
2022/12/31 02:07:08;;;;;;;44.63;21.80;;;;;;;3.63;75.88;100890.03;3162765;28;20066;-69
2022/12/31 02:08:41;;;;;;;40.75;20.25;;;;;;;3.60;75.87;100887.47;3170613;28;20148;-69
2022/12/31 02:10:12;;;;;;;45.78;22.00;;;;;;;3.57;75.81;100886.63;3170417;28;20411;-69
2022/12/31 02:11:45;;;;;;;41.80;21.45;;;;;;;3.62;75.82;100896.06;3170540;28;20048;-69
2022/12/31 02:13:17;;;;;;;46.40;20.77;;;;;;;3.57;75.87;100881.47;3167965;28;20044;-69
2022/12/31 02:14:51;;;;;;;42.58;20.55;;;;;;;3.61;75.80;100885.78;3157852;28;20048;-70
2022/12/31 02:16:32;;;;;;;42.25;20.50;;;;;;;3.61;75.80;100888.34;3158033;28;20048;-70
2022/12/31 02:18:12;;;;;;;42.38;20.50;;;;;;;3.58;75.79;100888.31;3157276;28;20097;-68
2022/12/31 02:20:06;;;;;;;45.92;22.05;;;;;;;3.58;75.79;100890.91;3157706;28;20435;-70
2022/12/31 02:21:53;;;;;;;42.10;20.42;;;;;;;3.56;75.58;100890.06;3158034;28;20101;-68
2022/12/31 02:23:58;;;;;;;39.97;18.98;;;;;;;3.48;75.49;100884.88;3163620;28;20468;-69
2022/12/31 02:25:50;;;;;;;41.05;19.52;;;;;;;3.45;75.73;100892.59;3137176;28;20120;-68
2022/12/31 02:27:48;;;;;;;42.85;19.13;;;;;;;3.31;75.68;100879.72;3157564;28;20771;-69
2022/12/31 02:29:39;;;;;;;43.47;19.52;;;;;;;3.29;75.97;100885.72;3157551;28;20162;-69
2022/12/31 02:31:17;;;;;;;45.45;20.00;;;;;;;3.18;76.07;100876.25;3160336;28;20051;-69
2022/12/31 02:32:57;;;;;;;38.55;18.83;;;;;;;3.21;76.20;100885.69;3170314;28;20052;-68
2022/12/31 02:34:34;;;;;;;40.65;19.40;;;;;;;3.19;76.17;100872.84;3166076;28;20059;-69
2022/12/31 02:36:11;;;;;;;41.35;19.55;;;;;;;3.17;76.30;100879.69;3166229;28;20054;-69
2022/12/31 02:37:47;;;;;;;38.92;18.50;;;;;;;3.14;76.28;100879.69;3157687;28;20101;-69
2022/12/31 02:39:19;;;;;;;46.65;21.15;;;;;;;3.11;76.36;100871.97;3161153;28;20043;-69
2022/12/31 02:40:53;;;;;;;46.75;19.83;;;;;;;3.16;76.38;100892.53;3166992;28;20432;-69
2022/12/31 02:42:24;;;;;;;42.47;19.00;;;;;;;3.18;76.33;100883.13;3158564;28;20048;-69
2022/12/31 02:43:56;;;;;;;40.85;18.83;;;;;;;3.15;76.34;100872.81;3170276;28;20047;-69
2022/12/31 02:45:32;;;;;;;44.08;20.05;;;;;;;3.19;76.16;100871.97;3170436;28;20064;-69
2022/12/31 02:47:17;;;;;;;42.03;19.17;;;;;;;3.25;76.02;100882.25;3170142;28;20047;-70
2022/12/31 02:49:00;;;;;;;40.60;19.88;;;;;;;3.26;75.84;100881.44;3163956;28;20382;-68
2022/12/31 02:50:54;;;;;;;41.13;18.75;;;;;;;2.45;75.71;100758.56;3158460;28;20558;-69
2022/12/31 02:52:37;;;;;;;38.85;18.90;;;;;;;3.25;75.92;100892.56;3152194;28;20127;-68
2022/12/31 02:54:17;;;;;;;;;;;;;;;3.18;75.94;100886.56;3165814;28;20040;-68
2022/12/31 02:55:56;;;;;;;44.13;19.17;;;;;;;3.16;76.04;100888.25;3152965;28;19999;-68
2022/12/31 02:57:38;;;;;;;42.45;20.00;;;;;;;3.18;76.13;100880.53;3162344;28;20433;-68
2022/12/31 03:02:55;;;;;;;45.88;20.17;;;;;;;2.45;76.12;100789.41;3166808;28;19924;-69
2022/12/31 03:04:31;;;;;;;42.78;19.58;;;;;;;2.42;76.11;100778.28;3157297;28;20679;-68
2022/12/31 03:06:04;;;;;;;38.15;19.23;;;;;;;3.15;76.24;100899.41;3166254;28;20059;-68
2022/12/31 03:07:36;;;;;;;45.33;20.25;;;;;;;3.16;76.25;100908.00;3169749;28;20108;-69
2022/12/31 03:09:13;;;;;;;45.30;20.88;;;;;;;3.04;76.19;100885.66;3160755;28;20052;-70
2022/12/31 03:10:44;;;;;;;46.92;22.25;;;;;;;3.14;76.06;100902.84;3164984;28;20421;-68
2022/12/31 03:14:07;;;;;;;48.90;21.77;;;;;;;3.16;75.99;100895.97;3160468;28;20040;-69
2022/12/31 03:15:38;;;;;;;49.30;22.20;;;;;;;3.16;76.16;100892.53;3156965;28;20117;-68
2022/12/31 03:17:10;;;;;;;47.67;21.30;;;;;;;2.66;75.88;100810.91;3156384;28;20494;-69
2022/12/31 03:22:27;;;;;;;45.33;20.92;;;;;;;3.22;76.13;100910.56;3158360;28;20462;-69
2022/12/31 03:25:49;;;;;;;45.15;20.88;;;;;;;3.16;76.30;100918.28;3168456;28;20480;-68
2022/12/31 03:27:19;;;;;;;54.97;22.55;;;;;;;3.14;76.29;100920.88;3159016;28;20062;-69
2022/12/31 03:28:51;;;;;;;48.30;22.08;;;;;;;3.10;76.45;100907.97;3166855;28;20052;-69
2022/12/31 03:30:24;;;;;;;52.72;25.08;;;;;;;3.11;76.51;100920.88;3160512;28;20047;-69
2022/12/31 03:31:56;;;;;;;56.38;25.13;;;;;;;3.08;76.51;100917.44;3157056;28;20720;-69
2022/12/31 03:33:32;;;;;;;51.13;23.60;;;;;;;3.05;76.68;100917.41;3165076;28;20113;-69
2022/12/31 03:35:06;;;;;;;53.42;24.45;;;;;;;3.00;76.97;100924.25;3169572;28;20471;-69
2022/12/31 03:36:39;;;;;;;48.70;22.45;;;;;;;2.95;77.09;100919.06;3162097;28;20546;-69
2022/12/31 03:38:11;;;;;;;46.17;21.90;;;;;;;2.91;77.29;100920.78;3163412;28;20055;-69
2022/12/31 03:39:42;;;;;;;47.38;21.65;;;;;;;2.87;77.36;100925.88;3163646;28;20075;-69
2022/12/31 03:41:14;;;;;;;48.28;21.52;;;;;;;2.78;77.49;100911.31;3156873;28;20039;-69
2022/12/31 03:42:46;;;;;;;54.78;22.52;;;;;;;2.04;77.39;100797.81;3160967;28;20047;-69
2022/12/31 03:44:18;;;;;;;46.15;21.20;;;;;;;2.80;77.75;100927.59;3166038;28;20599;-69
2022/12/31 03:45:51;;;;;;;43.78;21.25;;;;;;;2.82;77.68;100930.19;3159632;28;20452;-69
2022/12/31 03:47:22;;;;;;;49.08;22.27;;;;;;;2.83;77.76;100932.75;3162834;28;20131;-69
2022/12/31 03:48:53;;;;;;;48.33;21.88;;;;;;;2.81;77.61;100931.91;3156910;28;20512;-69
2022/12/31 03:50:27;;;;;;;40.97;19.70;;;;;;;2.87;77.42;100938.75;3156854;28;20052;-69
2022/12/31 03:51:58;;;;;;;42.63;21.35;;;;;;;2.82;77.35;100922.47;3148418;28;20044;-69
2022/12/31 03:53:30;;;;;;;45.33;20.42;;;;;;;2.67;77.35;100895.81;3156432;28;20067;-69
2022/12/31 03:55:03;;;;;;;39.87;19.43;;;;;;;2.88;77.27;100925.91;3156976;28;20091;-69
2022/12/31 03:56:35;;;;;;;45.67;20.75;;;;;;;2.93;77.24;100931.94;3154631;28;20051;-69
2022/12/31 03:58:07;;;;;;;43.53;19.65;;;;;;;2.94;77.26;100933.66;3156870;28;20494;-69
2022/12/31 03:59:39;;;;;;;42.13;19.70;;;;;;;2.42;77.14;100842.53;3163348;28;20483;-69
2022/12/31 04:01:10;;;;;;;43.65;19.30;;;;;;;2.78;77.09;100903.59;3160915;28;20047;-70
2022/12/31 04:02:42;;;;;;;45.25;20.75;;;;;;;2.90;77.11;100924.22;3164921;28;20515;-70
2022/12/31 04:04:13;;;;;;;39.15;18.92;;;;;;;2.90;77.11;100918.22;3169632;28;20043;-70
2022/12/31 04:05:53;;;;;;;43.15;18.98;;;;;;;2.42;77.21;100834.81;3163064;28;20107;-70
2022/12/31 04:07:24;;;;;;;42.15;19.88;;;;;;;2.85;77.21;100914.75;3156854;28;20044;-69
2022/12/31 04:08:56;;;;;;;42.65;19.55;;;;;;;2.82;77.23;100913.03;3156943;28;20044;-70
2022/12/31 04:10:28;;;;;;;39.22;19.15;;;;;;;2.86;77.21;100914.75;3161677;28;20116;-69
2022/12/31 04:11:59;;;;;;;44.58;21.65;;;;;;;2.88;77.21;100917.34;3169579;28;20452;-69
2022/12/31 04:13:31;;;;;;;44.20;19.75;;;;;;;2.85;77.19;100915.59;3169533;28;20100;-69
2022/12/31 04:15:03;;;;;;;43.20;20.30;;;;;;;2.91;77.13;100925.06;3169070;28;20060;-69
2022/12/31 04:16:35;;;;;;;42.10;19.73;;;;;;;2.92;77.13;100925.06;3158002;28;20135;-69
2022/12/31 04:18:07;;;;;;;44.05;20.17;;;;;;;2.75;76.89;100895.81;3158252;28;20059;-70
2022/12/31 04:19:38;;;;;;;43.63;19.30;;;;;;;2.95;76.91;100935.38;3169710;28;20054;-69
2022/12/31 04:21:11;;;;;;;40.95;20.00;;;;;;;2.97;76.93;100930.25;3169553;28;20043;-70
2022/12/31 04:22:43;;;;;;;41.47;21.13;;;;;;;2.97;76.82;100933.66;3156985;28;20048;-69
2022/12/31 04:24:14;;;;;;;42.80;20.63;;;;;;;2.97;76.64;100940.53;3168436;28;20051;-69
2022/12/31 04:25:46;;;;;;;43.03;20.73;;;;;;;2.21;76.73;100809.88;3158109;28;20455;-68
2022/12/31 04:27:24;;;;;;;50.45;23.27;;;;;;;2.97;76.94;100936.25;3155993;28;20059;-68
2022/12/31 04:28:54;;;;;;;49.83;21.85;;;;;;;2.98;76.84;100939.66;3157305;28;20056;-68
2022/12/31 04:30:26;;;;;;;45.05;21.25;;;;;;;2.94;76.79;100920.78;3167763;28;20043;-69
2022/12/31 04:31:57;;;;;;;40.33;20.63;;;;;;;3.01;76.84;100920.81;3168747;28;20135;-68
2022/12/31 04:33:29;;;;;;;42.25;20.73;;;;;;;3.03;76.79;100931.97;3172340;28;20051;-68
2022/12/31 04:35:01;;;;;;;47.80;21.25;;;;;;;3.02;76.83;100927.66;3165358;28;20421;-68
2022/12/31 04:36:33;;;;;;;45.90;21.73;;;;;;;2.99;76.86;100922.50;3159514;28;20058;-68
2022/12/31 04:38:05;;;;;;;44.70;20.13;;;;;;;2.38;76.76;100813.41;3159164;28;20043;-70
2022/12/31 04:39:37;;;;;;;48.50;21.08;;;;;;;3.06;76.84;100932.84;3164030;28;20044;-68
2022/12/31 04:41:17;;;;;;;50.47;20.75;;;;;;;3.03;76.85;100925.13;3171649;28;20044;-68
2022/12/31 04:42:49;;;;;;;46.38;21.10;;;;;;;3.08;76.99;100933.72;3171595;28;20094;-70
2022/12/31 04:44:20;;;;;;;51.90;23.33;;;;;;;3.10;77.04;100933.72;3168119;28;20072;-68
2022/12/31 04:45:52;;;;;;;53.85;23.10;;;;;;;3.12;76.88;100942.31;3158829;28;20059;-69
2022/12/31 04:47:24;;;;;;;42.95;21.20;;;;;;;3.09;76.81;100935.44;3157052;28;20056;-69
2022/12/31 04:48:56;;;;;;;46.33;22.67;;;;;;;3.08;76.83;100928.56;3147501;28;20063;-68
2022/12/31 04:50:28;;;;;;;48.70;20.80;;;;;;;3.16;76.80;100941.44;3159857;28;20060;-69
2022/12/31 04:52:01;;;;;;;48.05;21.70;;;;;;;3.18;76.65;100935.47;3162036;28;20047;-69
2022/12/31 04:53:32;;;;;;;49.50;21.65;;;;;;;2.17;76.43;100774.75;3159191;28;20116;-68
2022/12/31 04:55:05;;;;;;;45.08;21.75;;;;;;;3.20;76.73;100938.06;3158996;28;20040;-68
2022/12/31 04:56:37;;;;;;;53.15;21.13;;;;;;;3.18;76.77;100935.47;3158944;28;20097;-68
2022/12/31 04:58:09;;;;;;;45.25;21.17;;;;;;;3.22;76.79;100938.88;3158786;28;20126;-69
2022/12/31 04:59:41;;;;;;;45.35;21.67;;;;;;;3.25;76.69;100941.47;3156134;28;20055;-68
2022/12/31 05:01:13;;;;;;;46.30;21.13;;;;;;;3.07;76.82;100907.97;3158976;28;20044;-68
2022/12/31 05:02:45;;;;;;;43.65;20.88;;;;;;;3.24;76.81;100942.34;3158941;28;20059;-70
2022/12/31 05:04:16;;;;;;;49.20;21.05;;;;;;;3.26;76.93;100940.63;3166458;28;20036;-68
2022/12/31 05:05:48;;;;;;;46.55;21.02;;;;;;;3.24;77.01;100937.19;3171625;28;20501;-69
2022/12/31 05:07:22;;;;;;;48.15;19.90;;;;;;;3.27;76.95;100939.78;3164391;28;20111;-68
2022/12/31 05:08:53;;;;;;;40.38;20.02;;;;;;;3.30;76.95;100946.66;3165859;28;20097;-68
2022/12/31 05:10:25;;;;;;;42.70;21.20;;;;;;;3.32;77.04;100950.94;3158478;28;20095;-68
2022/12/31 05:11:57;;;;;;;47.83;21.20;;;;;;;3.36;76.84;100951.81;3155480;28;20044;-68
2022/12/31 05:13:30;;;;;;;42.05;20.58;;;;;;;3.38;76.84;100950.97;3162489;28;20047;-68
2022/12/31 05:15:01;;;;;;;52.93;21.53;;;;;;;3.33;76.74;100946.66;3155869;28;20104;-69
2022/12/31 05:16:33;;;;;;;50.47;22.98;;;;;;;3.31;76.54;100945.78;3164639;28;20105;-68
2022/12/31 05:18:06;;;;;;;59.75;25.60;;;;;;;3.36;76.64;100956.97;3158694;28;20390;-68
2022/12/31 05:19:37;;;;;;;53.47;24.63;;;;;;;3.34;76.43;100964.69;3159745;28;20052;-69
2022/12/31 05:21:12;;;;;;;54.47;24.40;;;;;;;3.09;76.39;100932.84;3171329;28;20092;-69
2022/12/31 05:22:44;;;;;;;61.78;28.17;;;;;;;2.78;76.02;100884.69;3171558;28;20043;-69
2022/12/31 05:24:16;;;;;;;52.20;25.33;;;;;;;3.22;75.92;100967.22;3171570;28;20100;-69
2022/12/31 05:25:48;;;;;;;51.15;25.30;;;;;;;3.16;75.66;100973.19;3159465;28;20048;-69
2022/12/31 05:27:20;;;;;;;56.40;25.77;;;;;;;3.11;75.76;100976.63;3158460;28;20055;-70
2022/12/31 05:28:54;;;;;;;55.45;25.95;;;;;;;3.08;75.73;100977.47;3158544;28;20051;-69
2022/12/31 05:30:25;;;;;;;56.53;27.08;;;;;;;2.96;75.53;100959.41;3158650;28;20060;-69
2022/12/31 05:31:57;;;;;;;61.25;25.77;;;;;;;3.01;75.80;100967.13;3167683;28;20056;-69
2022/12/31 05:33:29;;;;;;;55.58;25.83;;;;;;;3.05;76.00;100974.88;3162163;28;20070;-68
2022/12/31 05:35:00;;;;;;;63.13;25.73;;;;;;;3.06;76.01;100976.59;3158471;28;20048;-69
2022/12/31 05:36:32;;;;;;;57.58;25.15;;;;;;;3.07;76.05;100978.31;3165212;28;20054;-68
2022/12/31 05:38:05;;;;;;;56.55;24.38;;;;;;;3.10;76.10;100980.88;3171031;28;20085;-69
2022/12/31 05:39:37;;;;;;;53.72;25.48;;;;;;;3.11;76.27;100984.34;3171105;28;20070;-68
2022/12/31 05:41:10;;;;;;;64.93;25.83;;;;;;;3.09;76.13;100978.31;3165352;28;20501;-69
2022/12/31 05:42:41;;;;;;;;;;;;;;;3.08;76.11;100986.91;3163265;28;20051;-69
2022/12/31 05:44:13;;;;;;;55.80;24.58;;;;;;;3.03;76.18;100979.16;3165599;28;19972;-68
2022/12/31 05:45:45;;;;;;;55.05;25.35;;;;;;;3.09;76.36;100984.31;3169216;28;20051;-69
2022/12/31 05:47:16;;;;;;;56.17;26.35;;;;;;;3.16;76.22;100991.22;3159373;28;20450;-69
2022/12/31 05:48:47;;;;;;;56.25;27.75;;;;;;;3.19;76.29;100996.41;3161611;28;20542;-69
2022/12/31 05:50:18;;;;;;;59.20;27.75;;;;;;;3.22;76.28;100995.53;3171172;28;20047;-68
2022/12/31 05:51:50;;;;;;;55.38;26.42;;;;;;;3.23;76.09;100994.69;3158835;28;20128;-69
2022/12/31 05:53:23;;;;;;;56.78;26.88;;;;;;;3.22;75.85;101000.69;3158537;28;20056;-68
2022/12/31 05:54:54;;;;;;;59.75;26.70;;;;;;;3.19;75.96;101001.56;3168670;28;20069;-68
2022/12/31 05:56:26;;;;;;;59.72;27.52;;;;;;;3.17;76.03;101005.81;3169679;28;20401;-68
2022/12/31 05:57:58;;;;;;;61.55;27.63;;;;;;;3.17;76.00;101003.25;3167428;28;20097;-69
2022/12/31 05:59:29;;;;;;;53.97;26.52;;;;;;;3.15;76.06;100989.50;3165211;28;20047;-69
2022/12/31 06:01:01;;;;;;;58.72;27.42;;;;;;;3.15;75.92;100992.06;3162300;28;20074;-68
2022/12/31 06:02:32;;;;;;;55.58;26.80;;;;;;;3.23;76.12;101004.13;3160922;28;20052;-69
2022/12/31 06:04:04;;;;;;;57.60;27.90;;;;;;;3.25;76.00;101004.97;3164214;28;20044;-69
2022/12/31 06:05:40;;;;;;;55.03;27.27;;;;;;;3.23;76.05;100993.84;3165101;28;20048;-70
2022/12/31 06:07:11;;;;;;;60.03;27.83;;;;;;;3.27;76.12;101004.13;3157595;28;20440;-69
2022/12/31 06:08:44;;;;;;;74.38;27.80;;;;;;;3.30;76.13;101001.56;3161892;28;20130;-69
2022/12/31 06:10:16;;;;;;;57.35;27.52;;;;;;;3.32;76.01;101007.59;3169677;28;20048;-69
2022/12/31 06:11:47;;;;;;;58.25;26.90;;;;;;;3.33;75.90;101008.44;3167769;28;20048;-69
2022/12/31 06:13:19;;;;;;;63.15;26.25;;;;;;;3.33;75.86;101011.88;3159970;28;20441;-69
2022/12/31 06:14:51;;;;;;;60.20;28.02;;;;;;;2.32;75.96;100848.50;3168946;28;20100;-70
2022/12/31 06:16:23;;;;;;;64.07;27.60;;;;;;;3.31;75.95;101005.88;3157989;28;20044;-69
2022/12/31 06:17:55;;;;;;;63.83;27.80;;;;;;;3.37;76.16;101015.31;3158193;28;20490;-69
2022/12/31 06:19:25;;;;;;;57.33;27.58;;;;;;;3.38;76.03;101007.63;3145127;28;20586;-69
2022/12/31 06:20:58;;;;;;;63.75;28.75;;;;;;;3.41;76.21;101017.06;3169204;28;20201;-68
2022/12/31 06:22:30;;;;;;;59.78;27.80;;;;;;;3.39;76.21;101006.75;3170578;28;20385;-69
2022/12/31 06:24:02;;;;;;;60.25;25.17;;;;;;;3.42;76.16;101008.47;3170716;28;20055;-70
2022/12/31 06:25:35;;;;;;;59.83;25.92;;;;;;;3.46;76.23;101006.78;3160053;28;20405;-69
2022/12/31 06:27:06;;;;;;;65.05;30.23;;;;;;;3.48;76.02;101008.50;3167634;28;20044;-68
2022/12/31 06:28:38;;;;;;;66.05;28.98;;;;;;;3.47;76.01;101000.78;3163257;28;20078;-68
2022/12/31 06:30:11;;;;;;;55.85;26.40;;;;;;;3.51;75.96;101013.66;3162229;28;20418;-68
2022/12/31 06:31:43;;;;;;;58.40;24.55;;;;;;;3.52;76.14;101023.13;3157744;28;20125;-70
2022/12/31 06:33:15;;;;;;;54.55;25.83;;;;;;;3.54;76.14;101020.53;3164816;28;20100;-69
2022/12/31 06:34:47;;;;;;;53.58;25.23;;;;;;;3.56;75.97;101017.13;3163525;28;20048;-68
2022/12/31 06:36:20;;;;;;;59.03;24.40;;;;;;;3.51;75.98;101011.09;3157890;28;20051;-69
2022/12/31 06:37:52;;;;;;;59.83;26.50;;;;;;;3.52;76.05;101014.50;3162227;28;20154;-69
2022/12/31 06:39:27;;;;;;;53.33;25.80;;;;;;;3.59;76.15;101024.00;3170148;28;20040;-68
2022/12/31 06:41:03;;;;;;;57.25;25.52;;;;;;;3.63;76.05;101028.28;3152201;28;20428;-69
2022/12/31 06:42:34;;;;;;;66.75;26.58;;;;;;;3.64;76.08;101032.59;3159965;28;20055;-69
2022/12/31 06:44:05;;;;;;;57.45;26.33;;;;;;;3.68;76.08;101031.75;3170075;28;20405;-69
2022/12/31 06:45:38;;;;;;;58.63;26.50;;;;;;;3.72;76.01;101028.31;3169505;28;20074;-69
2022/12/31 06:47:10;;;;;;;64.97;26.95;;;;;;;3.67;75.96;101024.88;3157424;28;20157;-68
2022/12/31 06:48:43;;;;;;;60.00;27.83;;;;;;;3.76;75.86;101040.38;3157522;28;20105;-68
2022/12/31 06:50:15;;;;;;;;;;;;;;;3.74;75.77;101041.22;3170200;28;20061;-68
2022/12/31 06:51:47;;;;;;;62.67;26.77;;;;;;;3.69;75.94;101038.63;3161922;28;20377;-68
2022/12/31 06:53:19;;;;;;;61.60;27.85;;;;;;;3.79;75.99;101054.97;3156687;28;20052;-69
2022/12/31 06:54:52;;;;;;;60.63;27.75;;;;;;;3.84;75.85;101043.78;3157334;28;20437;-69
2022/12/31 06:56:27;;;;;;;59.30;27.75;;;;;;;3.82;75.79;101045.53;3156484;28;20067;-69
2022/12/31 06:58:00;;;;;;;60.33;29.15;;;;;;;3.84;75.63;101043.78;3163491;28;20445;-70
2022/12/31 06:59:32;;;;;;;60.53;27.70;;;;;;;3.92;75.57;101050.69;3158426;28;20117;-69
2022/12/31 07:01:15;;;;;;;67.55;29.90;;;;;;;3.94;75.50;101052.44;3157323;28;20065;-69
2022/12/31 07:03:14;;;;;;;65.95;29.80;;;;;;;3.97;75.42;101051.59;3157251;28;20059;-69
2022/12/31 07:05:08;;;;;;;57.72;28.45;;;;;;;3.89;75.51;101041.25;3157304;28;20622;-70
2022/12/31 07:06:46;;;;;;;64.10;28.67;;;;;;;3.84;75.63;101036.06;3150270;28;20075;-68
2022/12/31 07:08:30;;;;;;;65.00;29.10;;;;;;;4.04;75.65;101055.88;3157079;28;20064;-68
2022/12/31 07:10:13;;;;;;;61.50;29.52;;;;;;;4.05;75.84;101058.47;3157415;28;20056;-68
2022/12/31 07:11:54;;;;;;;64.95;29.70;;;;;;;4.06;75.84;101049.88;3157055;28;20441;-68
2022/12/31 07:13:53;;;;;;;68.72;29.63;;;;;;;4.00;75.86;101034.41;3159697;28;20112;-68
2022/12/31 07:15:44;;;;;;;63.63;29.77;;;;;;;4.10;75.81;101048.16;3163787;28;20501;-69
2022/12/31 07:17:30;;;;;;;70.55;31.67;;;;;;;4.19;75.88;101060.19;3152002;28;20048;-69
2022/12/31 07:19:14;;;;;;;74.13;33.75;;;;;;;4.24;76.08;101061.91;3157209;28;20048;-69
2022/12/31 07:20:46;;;;;;;73.80;33.45;;;;;;;4.29;75.98;101061.94;3157100;28;20128;-69
2022/12/31 07:22:19;;;;;;;79.15;34.13;;;;;;;4.34;75.96;101066.22;3155391;28;20055;-69
2022/12/31 07:23:51;;;;;;;66.80;29.70;;;;;;;4.32;75.91;101052.47;3157277;28;20052;-69
2022/12/31 07:25:25;;;;;;;69.57;32.15;;;;;;;4.47;75.82;101068.81;3156753;28;20434;-69